createdAt,value
2019-02-27T00:01:03.278Z,88.72
2019-02-27T00:03:33.044Z,94.15
2019-02-27T00:06:00.076Z,83.10
2019-02-27T00:08:27.662Z,82.97
2019-02-27T00:10:54.438Z,88.52
2019-02-27T00:13:24.750Z,92.12
2019-02-27T00:15:50.802Z,88.35
2019-02-27T00:18:17.599Z,86.28
2019-02-27T00:20:49.140Z,78.22
2019-02-27T00:23:16.474Z,80.77
2019-02-27T00:25:45.159Z,78.97
2019-02-27T00:28:12.814Z,77.00
2019-02-27T00:30:39.782Z,83.17
2019-02-27T00:33:07.095Z,78.17
2019-02-27T00:35:34.058Z,87.78
2019-02-27T00:38:00.935Z,83.82
2019-02-27T00:40:28.094Z,78.92
2019-02-27T00:42:55.016Z,87.40
2019-02-27T00:45:22.401Z,78.95
2019-02-27T00:47:53.300Z,89.15
2019-02-27T00:50:20.712Z,77.45
2019-02-27T00:52:50.850Z,93.60
2019-02-27T00:55:16.547Z,94.32
2019-02-27T00:57:43.356Z,86.32
2019-02-27T01:00:13.627Z,80.97
2019-02-27T01:02:42.025Z,83.00
2019-02-27T01:05:10.353Z,84.90
2019-02-27T01:07:37.973Z,88.95
2019-02-27T01:10:12.047Z,92.78
2019-02-27T01:12:37.305Z,80.28
2019-02-27T01:15:05.124Z,89.17
2019-02-27T01:17:32.198Z,90.53
2019-02-27T01:19:59.057Z,82.67
2019-02-27T01:22:26.365Z,97.33
2019-02-27T01:24:53.066Z,89.00
2019-02-27T01:27:21.425Z,79.42
2019-02-27T01:29:51.081Z,87.37
2019-02-27T01:32:17.249Z,76.10
2019-02-27T01:34:45.133Z,68.12
2019-02-27T01:37:12.295Z,67.30
2019-02-27T01:39:41.834Z,79.35
2019-02-27T01:42:08.138Z,69.97
2019-02-27T01:44:35.444Z,67.37
2019-02-27T01:47:03.047Z,75.40
2019-02-27T01:49:30.273Z,73.05
2019-02-27T01:51:59.123Z,84.55
2019-02-27T01:54:26.826Z,73.85
2019-02-27T01:56:54.350Z,68.33
2019-02-27T01:59:21.955Z,67.82
2019-02-27T02:01:49.407Z,71.28
2019-02-27T02:04:19.989Z,73.25
2019-02-27T02:06:46.634Z,73.37
2019-02-27T02:09:34.472Z,70.67
2019-02-27T02:12:07.835Z,81.63
2019-02-27T02:14:54.460Z,66.07
2019-02-27T02:17:50.640Z,68.28
2019-02-27T02:20:28.779Z,71.12
2019-02-27T02:23:06.074Z,74.20
2019-02-27T02:26:14.454Z,65.62
2019-02-27T02:29:42.026Z,70.95
2019-02-27T02:32:17.518Z,68.22
2019-02-27T02:35:14.841Z,67.47
2019-02-27T02:38:21.585Z,74.20
2019-02-27T02:41:35.969Z,74.20
2019-02-27T02:44:12.858Z,66.47
2019-02-27T02:46:54.156Z,77.27
2019-02-27T02:49:47.290Z,71.05
2019-02-27T02:52:40.933Z,69.75
2019-02-27T02:55:34.591Z,71.53
2019-02-27T02:58:13.668Z,74.42
2019-02-27T03:01:00.554Z,104.58
2019-02-27T03:03:48.748Z,95.15
2019-02-27T03:06:53.032Z,82.62
2019-02-27T03:09:59.978Z,81.82
2019-02-27T03:13:06.045Z,74.30
2019-02-27T03:16:15.554Z,73.15
2019-02-27T03:19:11.530Z,72.32
2019-02-27T03:22:03.753Z,78.07
2019-02-27T03:25:19.978Z,79.27
2019-02-27T03:28:19.801Z,78.92
2019-02-27T03:31:18.067Z,84.00
2019-02-27T03:34:32.622Z,84.32
2019-02-27T03:37:24.060Z,77.45
2019-02-27T03:40:33.071Z,77.45
2019-02-27T03:43:45.622Z,78.65
2019-02-27T03:46:33.118Z,71.17
2019-02-27T03:49:20.862Z,80.17
2019-02-27T03:52:10.163Z,82.62
2019-02-27T03:55:11.365Z,95.35
2019-02-27T03:58:14.243Z,79.53
2019-02-27T04:01:17.398Z,85.28
2019-02-27T04:04:30.611Z,69.80
2019-02-27T04:07:09.246Z,78.37
2019-02-27T04:09:36.424Z,77.15
2019-02-27T04:12:03.794Z,81.60
2019-02-27T04:14:32.344Z,83.65
2019-02-27T04:17:05.455Z,92.57
2019-02-27T04:19:29.655Z,81.20
2019-02-27T04:22:00.544Z,80.70
2019-02-27T04:24:26.549Z,84.15
2019-02-27T04:26:53.763Z,84.77
2019-02-27T04:29:21.074Z,88.37
2019-02-27T04:31:48.643Z,85.90
2019-02-27T04:34:15.890Z,88.22
2019-02-27T04:36:46.981Z,80.75
2019-02-27T04:39:14.581Z,77.75
2019-02-27T04:41:42.053Z,93.35
2019-02-27T04:44:09.488Z,86.45
2019-02-27T04:46:36.310Z,78.80
2019-02-27T04:49:04.871Z,90.05
2019-02-27T04:51:32.405Z,85.35
2019-02-27T04:54:00.685Z,74.35
2019-02-27T04:56:27.937Z,85.30
2019-02-27T04:58:54.730Z,78.65
2019-02-27T05:01:22.009Z,72.37
2019-02-27T05:03:49.351Z,79.62
2019-02-27T05:06:16.520Z,81.12
2019-02-27T05:08:43.196Z,70.08
2019-02-27T05:11:14.016Z,87.50
2019-02-27T05:13:39.633Z,85.38
2019-02-27T05:16:07.180Z,78.28
2019-02-27T05:18:33.862Z,79.17
2019-02-27T05:21:00.953Z,81.57
2019-02-27T05:23:27.623Z,86.70
2019-02-27T05:25:54.529Z,85.55
2019-02-27T05:28:21.890Z,81.70
2019-02-27T05:30:49.569Z,88.05
2019-02-27T05:33:16.264Z,87.35
2019-02-27T05:35:43.875Z,91.10
2019-02-27T05:38:10.589Z,89.37
2019-02-27T05:40:37.392Z,88.80
2019-02-27T05:43:04.601Z,78.90
2019-02-27T05:45:31.647Z,93.40
2019-02-27T05:47:59.106Z,93.80
2019-02-27T05:50:25.799Z,87.53
2019-02-27T05:52:52.810Z,89.15
2019-02-27T05:55:20.574Z,85.95
2019-02-27T05:57:47.572Z,92.50
2019-02-27T06:00:15.321Z,102.12
2019-02-27T06:02:44.981Z,101.67
2019-02-27T06:05:10.838Z,86.20
2019-02-27T06:07:38.051Z,94.20
2019-02-27T06:10:06.827Z,81.97
2019-02-27T06:12:33.544Z,93.22
2019-02-27T06:15:01.117Z,91.63
2019-02-27T06:17:28.163Z,90.40
2019-02-27T06:19:54.843Z,91.05
2019-02-27T06:22:21.532Z,84.52
2019-02-27T06:24:48.794Z,81.92
2019-02-27T06:27:15.954Z,86.90
2019-02-27T06:29:43.022Z,77.27
2019-02-27T06:32:12.146Z,87.37
2019-02-27T06:34:39.436Z,78.10
2019-02-27T06:37:06.794Z,85.17
2019-02-27T06:39:34.464Z,76.02
2019-02-27T06:42:02.305Z,77.22
2019-02-27T06:44:30.832Z,96.10
2019-02-27T06:46:58.070Z,80.90
2019-02-27T06:49:25.099Z,93.05
2019-02-27T06:51:52.681Z,81.47
2019-02-27T06:54:19.386Z,97.22
2019-02-27T06:56:46.090Z,83.75
2019-02-27T06:59:13.308Z,79.20
2019-02-27T07:01:40.731Z,86.30
2019-02-27T07:04:08.324Z,96.80
2019-02-27T07:06:36.882Z,80.45
2019-02-27T07:09:05.670Z,78.57
2019-02-27T07:11:34.534Z,87.42
2019-02-27T07:14:01.242Z,78.57
2019-02-27T07:16:28.012Z,80.50
2019-02-27T07:18:55.087Z,83.07
2019-02-27T07:21:22.638Z,78.00
2019-02-27T07:23:50.218Z,73.28
2019-02-27T07:26:17.962Z,81.53
2019-02-27T07:28:44.850Z,74.32
2019-02-27T07:31:17.270Z,77.60
2019-02-27T07:33:41.709Z,74.50
2019-02-27T07:36:09.333Z,73.47
2019-02-27T07:38:37.032Z,75.52
2019-02-27T07:41:04.774Z,79.82
2019-02-27T07:43:31.906Z,74.87
2019-02-27T07:46:00.106Z,74.35
2019-02-27T07:48:28.388Z,71.22
2019-02-27T07:50:55.723Z,73.40
2019-02-27T07:53:22.619Z,65.22
2019-02-27T07:55:49.696Z,68.78
2019-02-27T07:58:17.914Z,73.07
2019-02-27T08:00:47.136Z,75.08
2019-02-27T08:03:15.169Z,78.10
2019-02-27T08:05:42.828Z,63.13
2019-02-27T08:08:12.214Z,73.78
2019-02-27T08:10:40.184Z,83.87
2019-02-27T08:13:07.489Z,64.80
2019-02-27T08:15:34.890Z,59.95
2019-02-27T08:18:02.724Z,67.15
2019-02-27T08:20:29.876Z,58.38
2019-02-27T08:22:57.975Z,60.23
2019-02-27T08:25:25.103Z,55.15
2019-02-27T08:27:54.152Z,55.28
2019-02-27T08:30:21.370Z,65.83
2019-02-27T08:32:49.327Z,68.63
2019-02-27T08:35:17.174Z,65.30
2019-02-27T08:37:44.215Z,75.20
2019-02-27T08:40:11.198Z,76.50
2019-02-27T08:42:40.561Z,65.90
2019-02-27T08:45:08.071Z,58.73
2019-02-27T08:47:34.739Z,60.47
2019-02-27T08:50:02.784Z,69.73
2019-02-27T08:52:30.425Z,44.90
2019-02-27T08:54:57.895Z,46.30
2019-02-27T08:57:24.563Z,88.60
2019-02-27T08:59:51.402Z,47.10
2019-02-27T09:02:18.934Z,42.47
2019-02-27T09:04:46.212Z,39.17
2019-02-27T09:07:12.898Z,59.43
2019-02-27T09:09:40.082Z,63.47
2019-02-27T09:12:07.119Z,50.17
2019-02-27T09:14:33.811Z,35.30
2019-02-27T09:17:00.993Z,46.57
2019-02-27T09:19:28.350Z,43.90
2019-02-27T09:21:56.014Z,48.03
2019-02-27T09:24:23.158Z,28.80
2019-02-27T09:26:49.833Z,46.70
2019-02-27T09:29:18.711Z,40.07
2019-02-27T09:31:50.775Z,41.07
2019-02-27T09:34:15.446Z,45.60
2019-02-27T09:36:43.879Z,39.20
2019-02-27T09:39:11.496Z,36.70
2019-02-27T09:41:38.272Z,37.90
2019-02-27T09:44:05.741Z,39.60
2019-02-27T09:46:33.263Z,36.30
2019-02-27T09:48:59.945Z,33.60
2019-02-27T09:51:27.045Z,41.07
2019-02-27T09:53:54.805Z,41.27
2019-02-27T09:56:21.581Z,38.73
2019-02-27T09:58:48.818Z,25.10
2019-02-27T10:01:17.278Z,25.47
2019-02-27T10:03:44.412Z,37.27
2019-02-27T10:06:11.784Z,29.20
2019-02-27T10:08:38.563Z,38.07
2019-02-27T10:11:05.979Z,50.30
2019-02-27T10:13:37.497Z,40.43
2019-02-27T10:16:03.672Z,26.50
2019-02-27T10:18:30.681Z,36.17
2019-02-27T10:20:58.162Z,31.73
2019-02-27T10:23:24.838Z,37.53
2019-02-27T10:25:51.521Z,30.57
2019-02-27T10:28:18.696Z,35.50
2019-02-27T10:30:49.569Z,34.03
2019-02-27T10:33:14.662Z,23.53
2019-02-27T10:35:42.074Z,38.10
2019-02-27T10:38:09.537Z,40.80
2019-02-27T10:40:36.680Z,38.27
2019-02-27T10:43:03.480Z,37.87
2019-02-27T10:45:30.253Z,31.93
2019-02-27T10:47:57.173Z,29.00
2019-02-27T10:50:24.098Z,27.20
2019-02-27T10:52:50.831Z,44.53
2019-02-27T10:55:18.255Z,39.37
2019-02-27T10:57:46.749Z,39.30
2019-02-27T11:00:17.458Z,34.20
2019-02-27T11:02:45.189Z,38.83
2019-02-27T11:05:15.109Z,36.13
2019-02-27T11:07:42.877Z,34.63
2019-02-27T11:10:10.562Z,51.37
2019-02-27T11:12:38.566Z,34.67
2019-02-27T11:15:08.182Z,38.93
2019-02-27T11:17:35.501Z,83.70
2019-02-27T11:20:02.763Z,24.50
2019-02-27T11:22:31.772Z,29.40
2019-02-27T11:24:59.717Z,28.33
2019-02-27T11:27:27.994Z,23.20
2019-02-27T11:29:59.611Z,30.03
2019-02-27T11:32:24.056Z,29.00
2019-02-27T11:34:51.380Z,31.83
2019-02-27T11:37:18.533Z,24.70
2019-02-27T11:39:45.575Z,24.33
2019-02-27T11:42:12.773Z,20.00
2019-02-27T11:44:40.731Z,25.63
2019-02-27T11:47:10.892Z,23.83
2019-02-27T11:49:38.757Z,31.60
2019-02-27T11:52:06.551Z,34.90
2019-02-27T11:54:33.817Z,25.77
2019-02-27T11:57:00.501Z,21.60
2019-02-27T11:59:27.686Z,46.43
2019-02-27T12:01:56.151Z,33.80
2019-02-27T12:04:24.039Z,39.33
2019-02-27T12:06:51.710Z,30.57
2019-02-27T12:09:19.567Z,24.70
2019-02-27T12:11:48.707Z,21.87
2019-02-27T12:14:15.181Z,29.73
2019-02-27T12:16:42.249Z,39.17
2019-02-27T12:19:09.480Z,23.63
2019-02-27T12:21:36.382Z,30.30
2019-02-27T12:24:05.381Z,28.17
2019-02-27T12:26:34.454Z,46.87
2019-02-27T12:29:01.701Z,31.10
2019-02-27T12:31:28.837Z,36.57
2019-02-27T12:33:56.448Z,39.20
2019-02-27T12:36:23.840Z,30.77
2019-02-27T12:38:51.507Z,45.13
2019-02-27T12:41:18.974Z,28.57
2019-02-27T12:43:52.189Z,47.57
2019-02-27T12:46:17.479Z,36.10
2019-02-27T12:48:46.424Z,30.00
2019-02-27T12:51:14.720Z,33.40
2019-02-27T12:53:42.497Z,30.27
2019-02-27T12:56:09.462Z,28.03
2019-02-27T12:58:39.195Z,35.47
2019-02-27T13:01:06.612Z,29.70
2019-02-27T13:03:34.556Z,30.07
2019-02-27T13:06:01.814Z,30.33
2019-02-27T13:08:28.603Z,23.43
2019-02-27T13:10:56.522Z,27.33
2019-02-27T13:13:25.861Z,27.43
2019-02-27T13:15:53.596Z,32.07
2019-02-27T13:18:21.472Z,27.97
2019-02-27T13:20:49.223Z,27.03
2019-02-27T13:23:16.545Z,19.67
2019-02-27T13:25:43.840Z,21.00
2019-02-27T13:28:11.082Z,22.00
2019-02-27T13:30:41.312Z,19.47
2019-02-27T13:33:07.210Z,20.70
2019-02-27T13:35:34.687Z,26.70
2019-02-27T13:38:02.456Z,22.40
2019-02-27T13:40:35.267Z,20.87
2019-02-27T13:42:58.714Z,22.50
2019-02-27T13:45:25.858Z,26.00
2019-02-27T13:47:52.877Z,22.80
2019-02-27T13:50:24.409Z,20.17
2019-02-27T13:52:50.731Z,20.43
2019-02-27T13:55:18.192Z,19.70
2019-02-27T13:57:45.321Z,24.10
2019-02-27T14:00:20.957Z,21.20
2019-02-27T14:02:48.520Z,23.57
2019-02-27T14:05:16.251Z,17.03
2019-02-27T14:07:44.004Z,20.13
2019-02-27T14:10:16.660Z,22.70
2019-02-27T14:12:41.530Z,27.50
2019-02-27T14:15:09.234Z,21.50
2019-02-27T14:17:41.348Z,25.83
2019-02-27T14:20:08.217Z,21.63
2019-02-27T14:22:34.918Z,21.03
2019-02-27T14:25:01.767Z,24.07
2019-02-27T14:27:29.596Z,17.37
2019-02-27T14:29:56.284Z,19.27
2019-02-27T14:32:23.366Z,17.87
2019-02-27T14:34:50.097Z,14.47
2019-02-27T14:37:17.256Z,12.80
2019-02-27T14:39:43.977Z,14.33
2019-02-27T14:42:11.131Z,20.93
2019-02-27T14:44:38.932Z,12.80
2019-02-27T14:47:05.655Z,19.50
2019-02-27T14:49:33.624Z,23.13
2019-02-27T14:52:01.189Z,15.83
2019-02-27T14:54:29.082Z,17.97
2019-02-27T14:56:56.906Z,20.40
2019-02-27T14:59:23.713Z,22.13
2019-02-27T15:01:51.433Z,16.80
2019-02-27T15:04:20.190Z,21.13
2019-02-27T15:06:50.372Z,20.10
2019-02-27T15:09:16.973Z,25.80
2019-02-27T15:11:44.941Z,20.80
2019-02-27T15:14:12.436Z,23.13
2019-02-27T15:16:39.251Z,21.17
2019-02-27T15:19:06.430Z,15.10
2019-02-27T15:21:33.697Z,25.10
2019-02-27T15:24:01.360Z,24.20
2019-02-27T15:26:29.260Z,31.17
2019-02-27T15:28:56.429Z,25.20
2019-02-27T15:31:23.255Z,22.70
2019-02-27T15:33:50.625Z,38.70
2019-02-27T15:36:17.510Z,28.30
2019-02-27T15:38:47.024Z,33.00
2019-02-27T15:41:16.763Z,32.33
2019-02-27T15:43:43.967Z,30.93
2019-02-27T15:46:11.287Z,31.93
2019-02-27T15:48:40.875Z,26.73
2019-02-27T15:51:07.900Z,24.93
2019-02-27T15:53:35.502Z,27.93
2019-02-27T15:56:05.479Z,24.17
2019-02-27T15:58:32.112Z,28.57
2019-02-27T16:00:59.729Z,22.43
2019-02-27T16:03:26.869Z,36.80
2019-02-27T16:05:54.273Z,20.90
2019-02-27T16:08:23.436Z,21.33
2019-02-27T16:10:54.727Z,22.83
2019-02-27T16:13:20.881Z,23.07
2019-02-27T16:15:49.171Z,31.17
2019-02-27T16:18:16.750Z,27.93
2019-02-27T16:20:43.576Z,32.70
2019-02-27T16:23:10.259Z,30.13
2019-02-27T16:25:37.666Z,28.47
2019-02-27T16:28:04.579Z,28.67
2019-02-27T16:30:33.044Z,30.77
2019-02-27T16:33:00.649Z,29.20
2019-02-27T16:35:27.946Z,31.43
2019-02-27T16:37:57.583Z,33.43
2019-02-27T16:40:24.741Z,26.83
2019-02-27T16:42:52.869Z,30.40
2019-02-27T16:45:22.676Z,33.33
2019-02-27T16:47:49.880Z,42.57
2019-02-27T16:50:23.902Z,35.77
2019-02-27T16:52:48.247Z,33.80
2019-02-27T16:55:16.271Z,33.17
2019-02-27T16:57:43.067Z,37.40
2019-02-27T17:00:12.673Z,31.60
2019-02-27T17:02:40.501Z,35.53
2019-02-27T17:05:08.874Z,35.60
2019-02-27T17:07:38.359Z,34.77
2019-02-27T17:10:09.104Z,35.37
2019-02-27T17:12:38.260Z,33.97
2019-02-27T17:15:05.033Z,34.97
2019-02-27T17:17:32.532Z,35.30
2019-02-27T17:19:59.732Z,32.20
2019-02-27T17:22:26.431Z,36.60
2019-02-27T17:24:55.197Z,36.13
2019-02-27T17:27:22.165Z,40.27
2019-02-27T17:29:49.442Z,36.57
2019-02-27T17:32:16.229Z,37.60
2019-02-27T17:34:47.278Z,35.47
2019-02-27T17:37:11.903Z,36.67
2019-02-27T17:39:39.796Z,38.30
2019-02-27T17:42:06.533Z,32.60
2019-02-27T17:44:35.289Z,35.53
2019-02-27T17:47:02.402Z,35.00
2019-02-27T17:49:30.744Z,45.63
2019-02-27T17:51:58.308Z,43.53
2019-02-27T17:54:25.758Z,36.97
2019-02-27T17:56:53.737Z,43.47
2019-02-27T17:59:21.304Z,33.30
2019-02-27T18:01:48.306Z,38.80
2019-02-27T18:04:15.550Z,37.00
2019-02-27T18:06:42.642Z,42.70
2019-02-27T18:09:11.082Z,40.10
2019-02-27T18:11:38.842Z,37.70
2019-02-27T18:14:09.980Z,47.00
2019-02-27T18:16:36.538Z,30.00
2019-02-27T18:19:03.889Z,40.50
2019-02-27T18:21:33.814Z,40.63
2019-02-27T18:24:00.174Z,33.70
2019-02-27T18:26:28.251Z,80.63
2019-02-27T18:28:55.473Z,34.57
2019-02-27T18:31:26.681Z,32.97
2019-02-27T18:33:51.613Z,37.27
2019-02-27T18:36:19.172Z,34.50
2019-02-27T18:38:46.639Z,74.80
2019-02-27T18:41:14.511Z,45.00
2019-02-27T18:43:43.175Z,40.00
2019-02-27T18:46:10.301Z,36.13
2019-02-27T18:48:37.585Z,34.37
2019-02-27T18:51:04.385Z,32.27
2019-02-27T18:53:32.279Z,34.53
2019-02-27T18:56:01.929Z,43.70
2019-02-27T18:58:28.597Z,34.20
2019-02-27T19:00:55.285Z,37.27
2019-02-27T19:03:25.418Z,26.40
2019-02-27T19:05:51.201Z,32.90
2019-02-27T19:08:18.471Z,27.53
2019-02-27T19:10:45.706Z,26.10
2019-02-27T19:13:12.900Z,37.30
2019-02-27T19:15:45.299Z,31.20
2019-02-27T19:18:09.940Z,68.30
2019-02-27T19:20:37.420Z,31.33
2019-02-27T19:23:04.642Z,96.03
2019-02-27T19:25:34.812Z,33.13
2019-02-27T19:28:01.416Z,49.67
2019-02-27T19:30:28.872Z,35.23
2019-02-27T19:33:01.593Z,36.60
2019-02-27T19:35:25.426Z,46.77
2019-02-27T19:37:52.465Z,34.70
2019-02-27T19:40:20.659Z,46.37
2019-02-27T19:42:52.657Z,47.53
2019-02-27T19:45:20.613Z,30.27
2019-02-27T19:47:51.848Z,30.50
2019-02-27T19:50:18.322Z,33.30
2019-02-27T19:52:45.331Z,32.40
2019-02-27T19:55:13.545Z,34.63
2019-02-27T19:57:42.327Z,33.53
2019-02-27T20:00:10.299Z,43.23
2019-02-27T20:02:38.770Z,35.00
2019-02-27T20:05:06.623Z,35.63
2019-02-27T20:07:35.787Z,38.73
2019-02-27T20:10:04.058Z,32.33
2019-02-27T20:12:31.601Z,29.60
2019-02-27T20:14:59.795Z,32.50
2019-02-27T20:17:32.825Z,27.40
2019-02-27T20:19:57.052Z,32.73
2019-02-27T20:22:23.844Z,31.17
2019-02-27T20:24:51.038Z,42.27
2019-02-27T20:27:18.730Z,37.00
2019-02-27T20:29:45.946Z,34.60
2019-02-27T20:32:14.523Z,26.70
2019-02-27T20:34:45.903Z,35.40
2019-02-27T20:37:15.317Z,35.07
2019-02-27T20:39:43.983Z,36.00
2019-02-27T20:42:13.671Z,28.17
2019-02-27T20:44:39.702Z,27.93
2019-02-27T20:47:24.160Z,35.50
2019-02-27T20:50:20.858Z,31.37
2019-02-27T20:53:02.342Z,35.00
2019-02-27T20:55:48.954Z,28.67
2019-02-27T20:58:34.811Z,31.33
2019-02-27T21:01:18.721Z,33.87
2019-02-27T21:04:06.192Z,33.57
2019-02-27T21:06:53.478Z,36.63
2019-02-27T21:09:23.845Z,27.07
2019-02-27T21:11:50.534Z,28.47
2019-02-27T21:14:20.562Z,34.37
2019-02-27T21:16:48.090Z,28.77
2019-02-27T21:19:15.059Z,30.53
2019-02-27T21:21:41.986Z,34.77
2019-02-27T21:24:10.165Z,32.53
2019-02-27T21:26:36.936Z,32.83
2019-02-27T21:29:05.238Z,28.03
2019-02-27T21:31:33.689Z,33.50
2019-02-27T21:34:01.097Z,36.87
2019-02-27T21:36:28.387Z,29.90
2019-02-27T21:38:55.799Z,32.03
2019-02-27T21:41:22.854Z,27.20
2019-02-27T21:43:50.636Z,37.97
2019-02-27T21:46:17.546Z,36.73
2019-02-27T21:48:44.712Z,34.77
2019-02-27T21:51:13.863Z,45.97
2019-02-27T21:53:42.006Z,32.17
2019-02-27T21:56:09.444Z,39.37
2019-02-27T21:58:36.688Z,37.90
2019-02-27T22:01:03.510Z,38.20
2019-02-27T22:03:30.388Z,31.57
2019-02-27T22:05:58.196Z,38.00
2019-02-27T22:08:25.576Z,59.17
2019-02-27T22:10:53.744Z,75.63
2019-02-27T22:13:28.899Z,36.43
2019-02-27T22:15:55.801Z,45.97
2019-02-27T22:18:19.012Z,30.63
2019-02-27T22:20:46.379Z,28.93
2019-02-27T22:23:13.698Z,33.70
2019-02-27T22:25:40.778Z,30.13
2019-02-27T22:28:07.949Z,43.70
2019-02-27T22:30:34.891Z,38.23
2019-02-27T22:33:02.321Z,39.80
2019-02-27T22:35:30.440Z,46.10
2019-02-27T22:37:57.945Z,38.03
2019-02-27T22:40:24.616Z,34.87
2019-02-27T22:42:51.760Z,38.17
2019-02-27T22:45:19.425Z,35.43
2019-02-27T22:47:47.197Z,40.27
2019-02-27T22:50:15.443Z,34.80
2019-02-27T22:52:42.762Z,40.10
2019-02-27T22:55:10.751Z,41.50
2019-02-27T22:57:37.786Z,42.97
2019-02-27T23:00:18.275Z,32.40
2019-02-27T23:02:47.442Z,32.77
2019-02-27T23:05:14.490Z,38.53
2019-02-27T23:07:42.193Z,41.43
2019-02-27T23:10:09.865Z,42.57
2019-02-27T23:12:39.466Z,43.63
2019-02-27T23:15:07.285Z,34.20
2019-02-27T23:17:33.974Z,43.90
2019-02-27T23:20:00.991Z,40.80
2019-02-27T23:22:29.688Z,43.60
2019-02-27T23:25:05.924Z,40.73
2019-02-27T23:27:33.428Z,48.83
2019-02-27T23:30:00.427Z,47.80
2019-02-27T23:32:29.162Z,49.97
2019-02-27T23:34:56.297Z,59.50
2019-02-27T23:37:24.271Z,41.57
2019-02-27T23:39:51.390Z,51.00
2019-02-27T23:42:18.098Z,42.20
2019-02-27T23:44:44.991Z,41.57
2019-02-27T23:47:12.439Z,59.40
2019-02-27T23:49:40.285Z,63.10
2019-02-27T23:52:07.670Z,64.47
2019-02-27T23:54:35.790Z,63.10
2019-02-27T23:57:03.719Z,52.07
2019-02-27T23:59:32.979Z,70.67
